createdAt,value
2022-07-30T00:00:00.353Z,4.60
2022-07-30T00:01:00.358Z,4.60
2022-07-30T00:02:00.338Z,4.60
2022-07-30T00:03:00.291Z,4.60
2022-07-30T00:04:00.378Z,4.60
2022-07-30T00:05:00.459Z,4.60
2022-07-30T00:06:00.503Z,4.60
2022-07-30T00:07:00.533Z,4.60
2022-07-30T00:08:00.263Z,4.60
2022-07-30T00:09:00.290Z,4.60
2022-07-30T00:10:01.039Z,4.60
2022-07-30T00:11:00.275Z,4.60
2022-07-30T00:12:00.309Z,4.60
2022-07-30T00:13:00.273Z,4.60
2022-07-30T00:14:00.330Z,4.60
2022-07-30T00:15:00.328Z,4.60
2022-07-30T00:16:00.395Z,4.60
2022-07-30T00:17:01.112Z,4.60
2022-07-30T00:18:00.316Z,4.60
2022-07-30T00:19:00.339Z,4.60
2022-07-30T00:20:00.314Z,4.60
2022-07-30T00:21:00.276Z,4.60
2022-07-30T00:22:00.310Z,4.60
2022-07-30T00:23:02.304Z,4.60
2022-07-30T00:24:02.056Z,4.60
2022-07-30T00:25:00.292Z,4.60
2022-07-30T00:26:00.268Z,4.60
2022-07-30T00:27:00.508Z,4.60
2022-07-30T00:28:00.370Z,4.60
2022-07-30T00:29:00.327Z,4.60
2022-07-30T00:30:00.866Z,5.80
2022-07-30T00:31:00.400Z,5.80
2022-07-30T00:32:00.257Z,5.80
2022-07-30T00:33:00.375Z,5.80
2022-07-30T00:34:00.270Z,5.80
2022-07-30T00:35:00.324Z,5.80
2022-07-30T00:36:00.276Z,5.80
2022-07-30T00:37:00.461Z,5.80
2022-07-30T00:38:00.406Z,5.80
2022-07-30T00:39:00.290Z,5.80
2022-07-30T00:40:00.565Z,5.80
2022-07-30T00:41:00.318Z,5.80
2022-07-30T00:42:01.783Z,5.80
2022-07-30T00:43:00.264Z,5.80
2022-07-30T00:44:00.305Z,5.80
2022-07-30T00:45:00.288Z,5.80
2022-07-30T00:46:00.495Z,5.80
2022-07-30T00:47:00.631Z,5.80
2022-07-30T00:48:00.299Z,5.80
2022-07-30T00:49:00.346Z,5.80
2022-07-30T00:50:00.390Z,5.80
2022-07-30T00:51:00.314Z,5.80
2022-07-30T00:52:00.304Z,5.80
2022-07-30T00:53:00.329Z,5.80
2022-07-30T00:54:00.273Z,5.80
2022-07-30T00:55:00.731Z,5.80
2022-07-30T00:56:00.961Z,5.80
2022-07-30T00:57:00.573Z,5.80
2022-07-30T00:58:00.447Z,5.80
2022-07-30T00:59:00.288Z,5.80
2022-07-30T01:00:00.530Z,5.90
2022-07-30T01:01:00.331Z,5.90
2022-07-30T01:02:00.388Z,5.90
2022-07-30T01:03:00.281Z,5.90
2022-07-30T01:04:00.725Z,5.90
2022-07-30T01:05:00.398Z,5.90
2022-07-30T01:06:00.282Z,5.90
2022-07-30T01:07:00.475Z,5.90
2022-07-30T01:08:00.324Z,5.90
2022-07-30T01:09:00.272Z,5.90
2022-07-30T01:10:00.721Z,5.90
2022-07-30T01:11:00.280Z,5.90
2022-07-30T01:12:00.452Z,5.90
2022-07-30T01:13:00.301Z,5.90
2022-07-30T01:14:00.358Z,5.90
2022-07-30T01:15:01.605Z,5.90
2022-07-30T01:16:00.365Z,5.90
2022-07-30T01:17:01.445Z,5.90
2022-07-30T01:18:01.713Z,5.90
2022-07-30T01:19:03.222Z,5.90
2022-07-30T01:20:03.927Z,5.90
2022-07-30T01:21:04.377Z,5.90
2022-07-30T01:22:05.968Z,5.90
2022-07-30T01:23:10.192Z,5.90
2022-07-30T01:24:07.867Z,5.90
2022-07-30T01:25:10.206Z,5.90
2022-07-30T01:26:03.429Z,5.90
2022-07-30T01:27:00.980Z,5.90
2022-07-30T01:28:03.659Z,5.90
2022-07-30T01:29:00.785Z,5.90
2022-07-30T01:30:01.562Z,6.70
2022-07-30T01:31:01.690Z,6.70
2022-07-30T01:32:01.558Z,6.70
2022-07-30T01:33:01.162Z,6.70
2022-07-30T01:34:00.929Z,6.70
2022-07-30T01:35:01.233Z,6.70
2022-07-30T01:36:01.024Z,6.70
2022-07-30T01:37:01.699Z,6.70
2022-07-30T01:38:03.187Z,6.70
2022-07-30T01:39:01.017Z,6.70
2022-07-30T01:40:01.086Z,6.70
2022-07-30T01:41:01.193Z,6.70
2022-07-30T01:42:01.485Z,6.70
2022-07-30T01:43:01.193Z,6.70
2022-07-30T01:44:01.615Z,6.70
2022-07-30T01:45:01.393Z,6.70
2022-07-30T01:46:01.646Z,6.70
2022-07-30T01:47:01.437Z,6.70
2022-07-30T01:48:01.799Z,6.70
2022-07-30T01:49:00.812Z,6.70
2022-07-30T01:50:01.771Z,6.70
2022-07-30T01:51:02.591Z,6.70
2022-07-30T01:52:01.600Z,6.70
2022-07-30T01:53:01.900Z,6.70
2022-07-30T01:54:00.789Z,6.70
2022-07-30T01:55:01.402Z,6.70
2022-07-30T01:56:00.884Z,6.70
2022-07-30T01:57:01.340Z,6.70
2022-07-30T01:58:00.976Z,6.70
2022-07-30T01:59:01.678Z,6.70
2022-07-30T02:00:02.304Z,5.30
2022-07-30T02:01:00.358Z,5.30
2022-07-30T02:02:00.972Z,5.30
2022-07-30T02:03:00.369Z,5.30
2022-07-30T02:04:01.358Z,5.30
2022-07-30T02:05:00.435Z,5.30
2022-07-30T02:06:04.045Z,5.30
2022-07-30T02:07:03.616Z,5.30
2022-07-30T02:08:04.740Z,5.30
2022-07-30T02:09:02.051Z,5.30
2022-07-30T02:10:03.930Z,5.30
2022-07-30T02:11:03.471Z,5.30
2022-07-30T02:12:01.002Z,5.30
2022-07-30T02:13:02.238Z,5.30
2022-07-30T02:14:01.297Z,5.30
2022-07-30T02:15:06.190Z,5.30
2022-07-30T02:16:07.834Z,5.30
2022-07-30T02:17:02.226Z,5.30
2022-07-30T02:18:09.413Z,5.30
2022-07-30T02:19:06.223Z,5.30
2022-07-30T02:20:01.358Z,5.30
2022-07-30T02:21:07.335Z,5.30
2022-07-30T02:22:03.831Z,5.30
2022-07-30T02:23:01.472Z,5.30
2022-07-30T02:24:02.082Z,5.30
2022-07-30T02:25:01.724Z,5.30
2022-07-30T02:26:00.892Z,5.30
2022-07-30T02:27:02.235Z,5.30
2022-07-30T02:28:05.592Z,5.30
2022-07-30T02:29:01.698Z,5.30
2022-07-30T02:30:01.273Z,5.20
2022-07-30T02:31:00.474Z,5.20
2022-07-30T02:32:01.417Z,5.20
2022-07-30T02:33:03.695Z,5.20
2022-07-30T02:34:02.347Z,5.20
2022-07-30T02:35:03.009Z,5.20
2022-07-30T02:36:01.093Z,5.20
2022-07-30T02:37:01.873Z,5.20
2022-07-30T02:38:01.337Z,5.20
2022-07-30T02:39:01.400Z,5.20
2022-07-30T02:40:00.336Z,5.20
2022-07-30T02:41:00.723Z,5.20
2022-07-30T02:42:01.871Z,5.20
2022-07-30T02:43:01.034Z,5.20
2022-07-30T02:44:00.839Z,5.20
2022-07-30T02:45:00.788Z,5.20
2022-07-30T02:46:00.596Z,5.20
2022-07-30T02:47:04.706Z,5.20
2022-07-30T02:48:01.802Z,5.20
2022-07-30T02:49:01.340Z,5.20
2022-07-30T02:50:01.090Z,5.20
2022-07-30T02:51:01.741Z,5.20
2022-07-30T02:52:01.674Z,5.20
2022-07-30T02:53:01.558Z,5.20
2022-07-30T02:54:00.441Z,5.20
2022-07-30T02:55:01.629Z,5.20
2022-07-30T02:56:00.885Z,5.20
2022-07-30T02:57:01.594Z,5.20
2022-07-30T02:58:01.661Z,5.20
2022-07-30T02:59:01.062Z,5.20
2022-07-30T03:00:01.357Z,5.80
2022-07-30T03:01:01.344Z,5.80
2022-07-30T03:02:01.352Z,5.80
2022-07-30T03:03:01.806Z,5.80
2022-07-30T03:04:01.759Z,5.80
2022-07-30T03:05:01.298Z,5.80
2022-07-30T03:06:00.606Z,5.80
2022-07-30T03:07:04.843Z,5.80
2022-07-30T03:08:00.639Z,5.80
2022-07-30T03:09:01.412Z,5.80
2022-07-30T03:10:00.398Z,5.80
2022-07-30T03:11:01.525Z,5.80
2022-07-30T03:12:00.708Z,5.80
2022-07-30T03:13:02.074Z,5.80
2022-07-30T03:14:00.469Z,5.80
2022-07-30T03:15:00.474Z,5.80
2022-07-30T03:16:02.905Z,5.80
2022-07-30T03:17:02.303Z,5.80
2022-07-30T03:18:00.991Z,5.80
2022-07-30T03:19:01.597Z,5.80
2022-07-30T03:20:01.521Z,5.80
2022-07-30T03:21:00.827Z,5.80
2022-07-30T03:22:02.021Z,5.80
2022-07-30T03:23:01.652Z,5.80
2022-07-30T03:24:01.144Z,5.80
2022-07-30T03:25:01.004Z,5.80
2022-07-30T03:26:01.071Z,5.80
2022-07-30T03:27:00.925Z,5.80
2022-07-30T03:28:01.477Z,5.80
2022-07-30T03:29:01.067Z,5.80
2022-07-30T03:30:01.262Z,7.10
2022-07-30T03:31:00.391Z,7.10
2022-07-30T03:32:00.431Z,7.10
2022-07-30T03:33:00.901Z,7.10
2022-07-30T03:34:01.111Z,7.10
2022-07-30T03:35:05.689Z,7.10
2022-07-30T03:36:00.703Z,7.10
2022-07-30T03:37:02.673Z,7.10
2022-07-30T03:38:00.848Z,7.10
2022-07-30T03:39:01.362Z,7.10
2022-07-30T03:40:00.731Z,7.10
2022-07-30T03:41:02.401Z,7.10
2022-07-30T03:42:01.216Z,7.10
2022-07-30T03:43:00.294Z,7.10
2022-07-30T03:44:00.329Z,7.10
2022-07-30T03:45:02.427Z,7.10
2022-07-30T03:46:02.351Z,7.10
2022-07-30T03:47:01.454Z,7.10
2022-07-30T03:48:00.578Z,7.10
2022-07-30T03:49:00.662Z,7.10
2022-07-30T03:50:00.282Z,7.10
2022-07-30T03:51:05.729Z,7.10
2022-07-30T03:52:00.686Z,7.10
2022-07-30T03:53:01.896Z,7.10
2022-07-30T03:54:01.199Z,7.10
2022-07-30T03:55:01.421Z,7.10
2022-07-30T03:56:01.047Z,7.10
2022-07-30T03:57:01.430Z,7.10
2022-07-30T03:58:00.710Z,7.10
2022-07-30T03:59:00.771Z,7.10
2022-07-30T04:00:00.707Z,7.00
2022-07-30T04:01:00.270Z,7.00
2022-07-30T04:02:07.147Z,7.00
2022-07-30T04:03:00.323Z,7.00
2022-07-30T04:04:04.067Z,7.00
2022-07-30T04:05:00.257Z,7.00
2022-07-30T04:06:00.288Z,7.00
2022-07-30T04:07:00.800Z,7.00
2022-07-30T04:08:00.333Z,7.00
2022-07-30T04:09:00.283Z,7.00
2022-07-30T04:10:00.266Z,7.00
2022-07-30T04:11:00.249Z,7.00
2022-07-30T04:12:00.609Z,7.00
2022-07-30T04:13:00.261Z,7.00
2022-07-30T04:14:00.306Z,7.00
2022-07-30T04:15:00.292Z,7.00
2022-07-30T04:16:39.782Z,7.00
2022-07-30T04:17:03.137Z,7.00
2022-07-30T04:18:01.635Z,7.00
2022-07-30T04:19:02.425Z,7.00
2022-07-30T04:20:05.045Z,7.00
2022-07-30T04:21:02.468Z,7.00
2022-07-30T04:22:01.744Z,7.00
2022-07-30T04:23:01.543Z,7.00
2022-07-30T04:24:04.082Z,7.00
2022-07-30T04:25:01.079Z,7.00
2022-07-30T04:26:00.755Z,7.00
2022-07-30T04:27:01.518Z,7.00
2022-07-30T04:28:03.826Z,7.00
2022-07-30T04:29:01.495Z,7.00
2022-07-30T04:30:00.780Z,5.40
2022-07-30T04:31:00.396Z,5.40
2022-07-30T04:32:00.335Z,5.40
2022-07-30T04:33:01.392Z,5.40
2022-07-30T04:34:04.737Z,5.40
2022-07-30T04:35:00.286Z,5.40
2022-07-30T04:36:04.715Z,5.40
2022-07-30T04:37:00.791Z,5.40
2022-07-30T04:38:00.292Z,5.40
2022-07-30T04:39:00.277Z,5.40
2022-07-30T04:40:00.290Z,5.40
2022-07-30T04:41:00.523Z,5.40
2022-07-30T04:42:00.313Z,5.40
2022-07-30T04:43:00.263Z,5.40
2022-07-30T04:44:00.348Z,5.40
2022-07-30T04:45:00.301Z,5.40
2022-07-30T04:46:00.395Z,5.40
2022-07-30T04:47:00.570Z,5.40
2022-07-30T04:48:00.405Z,5.40
2022-07-30T04:49:00.359Z,5.40
2022-07-30T04:50:01.146Z,5.40
2022-07-30T04:51:01.662Z,5.40
2022-07-30T04:52:01.359Z,5.40
2022-07-30T04:53:00.640Z,5.40
2022-07-30T04:54:01.838Z,5.40
2022-07-30T04:55:02.645Z,5.40
2022-07-30T04:56:01.393Z,5.40
2022-07-30T04:57:00.446Z,5.40
2022-07-30T04:58:00.643Z,5.40
2022-07-30T04:59:00.531Z,5.40
2022-07-30T05:00:00.403Z,7.20
2022-07-30T05:01:01.428Z,7.20
2022-07-30T05:02:00.834Z,7.20
2022-07-30T05:03:01.232Z,7.20
2022-07-30T05:04:00.781Z,7.20
2022-07-30T05:05:01.657Z,7.20
2022-07-30T05:06:01.488Z,7.20
2022-07-30T05:07:01.463Z,7.20
2022-07-30T05:08:00.492Z,7.20
2022-07-30T05:09:00.543Z,7.20
2022-07-30T05:10:00.440Z,7.20
2022-07-30T05:11:00.317Z,7.20
2022-07-30T05:12:00.316Z,7.20
2022-07-30T05:13:00.302Z,7.20
2022-07-30T05:14:00.301Z,7.20
2022-07-30T05:15:00.270Z,7.20
2022-07-30T05:16:00.467Z,7.20
2022-07-30T05:17:00.856Z,7.20
2022-07-30T05:18:00.307Z,7.20
2022-07-30T05:19:00.288Z,7.20
2022-07-30T05:20:00.515Z,7.20
2022-07-30T05:21:00.266Z,7.20
2022-07-30T05:22:04.703Z,7.20
2022-07-30T05:23:00.277Z,7.20
2022-07-30T05:24:00.295Z,7.20
2022-07-30T05:25:00.337Z,7.20
2022-07-30T05:26:00.649Z,7.20
2022-07-30T05:27:00.669Z,7.20
2022-07-30T05:28:00.264Z,7.20
2022-07-30T05:29:00.363Z,7.20
2022-07-30T05:30:00.305Z,6.40
2022-07-30T05:31:00.288Z,6.40
2022-07-30T05:32:03.463Z,6.40
2022-07-30T05:33:02.786Z,6.40
2022-07-30T05:34:03.288Z,6.40
2022-07-30T05:35:00.251Z,6.40
2022-07-30T05:36:00.271Z,6.40
2022-07-30T05:37:00.479Z,6.40
2022-07-30T05:38:00.279Z,6.40
2022-07-30T05:39:00.547Z,6.40
2022-07-30T05:40:03.478Z,6.40
2022-07-30T05:41:00.297Z,6.40
2022-07-30T05:42:00.575Z,6.40
2022-07-30T05:43:00.260Z,6.40
2022-07-30T05:44:00.282Z,6.40
2022-07-30T05:45:00.305Z,6.40
2022-07-30T05:46:00.297Z,6.40
2022-07-30T05:47:00.564Z,6.40
2022-07-30T05:48:00.287Z,6.40
2022-07-30T05:49:00.339Z,6.40
2022-07-30T05:50:04.566Z,6.40
2022-07-30T05:51:00.723Z,6.40
2022-07-30T05:52:00.267Z,6.40
2022-07-30T05:53:00.274Z,6.40
2022-07-30T05:54:00.258Z,6.40
2022-07-30T05:55:00.290Z,6.40
2022-07-30T05:56:00.467Z,6.40
2022-07-30T05:57:00.545Z,6.40
2022-07-30T05:58:00.280Z,6.40
2022-07-30T05:59:00.478Z,6.40
2022-07-30T06:00:03.168Z,6.80
2022-07-30T06:01:00.262Z,6.80
2022-07-30T06:02:00.455Z,6.80
2022-07-30T06:03:00.959Z,6.80
2022-07-30T06:04:00.340Z,6.80
2022-07-30T06:05:00.361Z,6.80
2022-07-30T06:06:02.008Z,6.80
2022-07-30T06:07:00.433Z,6.80
2022-07-30T06:08:00.282Z,6.80
2022-07-30T06:09:00.284Z,6.80
2022-07-30T06:10:00.432Z,6.80
2022-07-30T06:11:00.314Z,6.80
2022-07-30T06:12:00.284Z,6.80
2022-07-30T06:13:00.271Z,6.80
2022-07-30T06:14:00.292Z,6.80
2022-07-30T06:15:00.289Z,6.80
2022-07-30T06:16:00.332Z,6.80
2022-07-30T06:17:00.845Z,6.80
2022-07-30T06:18:02.001Z,6.80
2022-07-30T06:19:00.259Z,6.80
2022-07-30T06:20:00.274Z,6.80
2022-07-30T06:21:00.269Z,6.80
2022-07-30T06:22:05.847Z,6.80
2022-07-30T06:23:00.269Z,6.80
2022-07-30T06:24:00.261Z,6.80
2022-07-30T06:25:00.339Z,6.80
2022-07-30T06:26:00.274Z,6.80
2022-07-30T06:27:00.868Z,6.80
2022-07-30T06:28:15.403Z,6.80
2022-07-30T06:29:00.256Z,6.80
2022-07-30T06:30:00.329Z,4.60
2022-07-30T06:31:00.450Z,4.60
2022-07-30T06:32:00.262Z,4.60
2022-07-30T06:33:00.265Z,4.60
2022-07-30T06:34:00.268Z,4.60
2022-07-30T06:35:04.553Z,4.60
2022-07-30T06:36:00.330Z,4.60
2022-07-30T06:37:00.485Z,4.60
2022-07-30T06:38:07.647Z,4.60
2022-07-30T06:39:00.444Z,4.60
2022-07-30T06:40:00.365Z,4.60
2022-07-30T06:41:02.791Z,4.60
2022-07-30T06:42:00.370Z,4.60
2022-07-30T06:43:00.329Z,4.60
2022-07-30T06:44:00.340Z,4.60
2022-07-30T06:45:00.263Z,4.60
2022-07-30T06:46:00.475Z,4.60
2022-07-30T06:47:06.836Z,4.60
2022-07-30T06:48:00.271Z,4.60
2022-07-30T06:49:00.367Z,4.60
2022-07-30T06:50:00.681Z,4.60
2022-07-30T06:51:00.306Z,4.60
2022-07-30T06:52:00.374Z,4.60
2022-07-30T06:53:00.297Z,4.60
2022-07-30T06:54:00.307Z,4.60
2022-07-30T06:55:00.262Z,4.60
2022-07-30T06:56:00.666Z,4.60
2022-07-30T06:57:00.656Z,4.60
2022-07-30T06:58:00.288Z,4.60
2022-07-30T06:59:00.299Z,4.60
2022-07-30T07:00:00.346Z,6.80
2022-07-30T07:01:00.371Z,6.80
2022-07-30T07:02:00.294Z,6.80
2022-07-30T07:03:00.269Z,6.80
2022-07-30T07:04:00.449Z,6.80
2022-07-30T07:05:00.318Z,6.80
2022-07-30T07:06:00.273Z,6.80
2022-07-30T07:07:00.640Z,6.80
2022-07-30T07:08:00.264Z,6.80
2022-07-30T07:09:00.290Z,6.80
2022-07-30T07:10:00.291Z,6.80
2022-07-30T07:11:00.275Z,6.80
2022-07-30T07:12:00.288Z,6.80
2022-07-30T07:13:00.363Z,6.80
2022-07-30T07:14:04.392Z,6.80
2022-07-30T07:15:00.296Z,6.80
2022-07-30T07:16:00.343Z,6.80
2022-07-30T07:17:00.839Z,6.80
2022-07-30T07:18:00.556Z,6.80
2022-07-30T07:19:00.266Z,6.80
2022-07-30T07:20:02.303Z,6.80
2022-07-30T07:21:00.305Z,6.80
2022-07-30T07:22:00.287Z,6.80
2022-07-30T07:23:05.293Z,6.80
2022-07-30T07:24:00.311Z,6.80
2022-07-30T07:25:00.269Z,6.80
2022-07-30T07:26:00.295Z,6.80
2022-07-30T07:27:00.607Z,6.80
2022-07-30T07:28:12.793Z,6.80
2022-07-30T07:29:04.982Z,6.80
2022-07-30T07:30:05.428Z,7.50
2022-07-30T07:31:00.395Z,7.50
2022-07-30T07:32:06.199Z,7.50
2022-07-30T07:33:00.273Z,7.50
2022-07-30T07:34:00.323Z,7.50
2022-07-30T07:35:00.292Z,7.50
2022-07-30T07:36:00.292Z,7.50
2022-07-30T07:37:00.531Z,7.50
2022-07-30T07:38:00.355Z,7.50
2022-07-30T07:39:00.259Z,7.50
2022-07-30T07:40:00.326Z,7.50
2022-07-30T07:41:00.272Z,7.50
2022-07-30T07:42:00.308Z,7.50
2022-07-30T07:43:00.284Z,7.50
2022-07-30T07:44:00.299Z,7.50
2022-07-30T07:45:00.261Z,7.50
2022-07-30T07:46:00.321Z,7.50
2022-07-30T07:47:00.539Z,7.50
2022-07-30T07:48:00.332Z,7.50
2022-07-30T07:49:00.793Z,7.50
2022-07-30T07:50:00.506Z,7.50
2022-07-30T07:51:00.855Z,7.50
2022-07-30T07:52:00.263Z,7.50
2022-07-30T07:53:00.274Z,7.50
2022-07-30T07:54:19.689Z,7.50
2022-07-30T07:55:00.260Z,7.50
2022-07-30T07:56:00.320Z,7.50
2022-07-30T07:57:01.560Z,7.50
2022-07-30T07:58:00.331Z,7.50
2022-07-30T07:59:00.278Z,7.50
2022-07-30T08:00:00.363Z,5.40
2022-07-30T08:01:00.583Z,5.40
2022-07-30T08:02:00.313Z,5.40
2022-07-30T08:03:00.254Z,5.40
2022-07-30T08:04:00.265Z,5.40
2022-07-30T08:05:00.302Z,5.40
2022-07-30T08:06:05.397Z,5.40
2022-07-30T08:07:00.528Z,5.40
2022-07-30T08:08:00.290Z,5.40
2022-07-30T08:09:00.273Z,5.40
2022-07-30T08:10:00.285Z,5.40
2022-07-30T08:11:00.324Z,5.40
2022-07-30T08:12:00.266Z,5.40
2022-07-30T08:13:00.262Z,5.40
2022-07-30T08:14:00.338Z,5.40
2022-07-30T08:15:00.458Z,5.40
2022-07-30T08:16:00.809Z,5.40
2022-07-30T08:17:00.838Z,5.40
2022-07-30T08:18:00.266Z,5.40
2022-07-30T08:19:00.282Z,5.40
2022-07-30T08:20:00.439Z,5.40
2022-07-30T08:21:00.260Z,5.40
2022-07-30T08:22:00.271Z,5.40
2022-07-30T08:23:00.685Z,5.40
2022-07-30T08:24:00.288Z,5.40
2022-07-30T08:25:00.311Z,5.40
2022-07-30T08:26:00.278Z,5.40
2022-07-30T08:27:00.588Z,5.40
2022-07-30T08:28:00.278Z,5.40
2022-07-30T08:29:00.259Z,5.40
2022-07-30T08:30:02.878Z,6.70
2022-07-30T08:31:02.455Z,6.70
2022-07-30T08:32:00.662Z,6.70
2022-07-30T08:33:00.263Z,6.70
2022-07-30T08:34:00.262Z,6.70
2022-07-30T08:35:00.790Z,6.70
2022-07-30T08:36:03.039Z,6.70
2022-07-30T08:37:00.298Z,6.70
2022-07-30T08:38:00.260Z,6.70
2022-07-30T08:39:00.381Z,6.70
2022-07-30T08:40:01.270Z,6.70
2022-07-30T08:41:00.281Z,6.70
2022-07-30T08:42:02.029Z,6.70
2022-07-30T08:43:02.873Z,6.70
2022-07-30T08:44:00.315Z,6.70
2022-07-30T08:45:00.405Z,6.70
2022-07-30T08:46:00.929Z,6.70
2022-07-30T08:47:00.958Z,6.70
2022-07-30T08:48:00.583Z,6.70
2022-07-30T08:49:06.371Z,6.70
2022-07-30T08:50:00.677Z,6.70
2022-07-30T08:51:01.131Z,6.70
2022-07-30T08:52:00.662Z,6.70
2022-07-30T08:53:00.482Z,6.70
2022-07-30T08:54:00.464Z,6.70
2022-07-30T08:55:00.381Z,6.70
2022-07-30T08:56:00.907Z,6.70
2022-07-30T08:57:00.671Z,6.70
2022-07-30T08:58:00.461Z,6.70
2022-07-30T08:59:00.634Z,6.70
2022-07-30T09:00:01.717Z,7.20
2022-07-30T09:01:00.849Z,7.20
2022-07-30T09:02:00.727Z,7.20
2022-07-30T09:03:00.334Z,7.20
2022-07-30T09:04:00.617Z,7.20
2022-07-30T09:05:00.343Z,7.20
2022-07-30T09:06:01.191Z,7.20
2022-07-30T09:07:00.699Z,7.20
2022-07-30T09:08:00.296Z,7.20
2022-07-30T09:09:00.400Z,7.20
2022-07-30T09:10:00.273Z,7.20
2022-07-30T09:11:00.317Z,7.20
2022-07-30T09:12:00.302Z,7.20
2022-07-30T09:13:00.305Z,7.20
2022-07-30T09:14:08.823Z,7.20
2022-07-30T09:15:07.681Z,7.20
2022-07-30T09:16:00.886Z,7.20
2022-07-30T09:17:00.618Z,7.20
2022-07-30T09:18:01.607Z,7.20
2022-07-30T09:19:10.319Z,7.20
2022-07-30T09:20:02.589Z,7.20
2022-07-30T09:21:01.190Z,7.20
2022-07-30T09:22:01.139Z,7.20
2022-07-30T09:23:01.289Z,7.20
2022-07-30T09:24:01.269Z,7.20
2022-07-30T09:25:00.295Z,7.20
2022-07-30T09:26:00.280Z,7.20
2022-07-30T09:27:02.462Z,7.20
2022-07-30T09:28:00.855Z,7.20
2022-07-30T09:29:10.228Z,7.20
2022-07-30T09:30:00.356Z,4.50
2022-07-30T09:31:00.277Z,4.50
2022-07-30T09:32:03.227Z,4.50
2022-07-30T09:33:00.255Z,4.50
2022-07-30T09:34:00.285Z,4.50
2022-07-30T09:35:10.361Z,4.50
2022-07-30T09:36:00.601Z,4.50
2022-07-30T09:37:01.570Z,4.50
2022-07-30T09:38:04.540Z,4.50
2022-07-30T09:39:00.297Z,4.50
2022-07-30T09:40:09.605Z,4.50
2022-07-30T09:41:08.044Z,4.50
2022-07-30T09:42:01.300Z,4.50
2022-07-30T09:43:01.269Z,4.50
2022-07-30T09:44:01.985Z,4.50
2022-07-30T09:45:10.288Z,4.50
2022-07-30T09:46:00.270Z,4.50
2022-07-30T09:47:00.283Z,4.50
2022-07-30T09:48:00.578Z,4.50
2022-07-30T09:49:10.405Z,4.50
2022-07-30T09:50:07.156Z,4.50
2022-07-30T09:51:00.296Z,4.50
2022-07-30T09:52:00.556Z,4.50
2022-07-30T09:53:08.891Z,4.50
2022-07-30T09:54:00.346Z,4.50
2022-07-30T09:55:00.374Z,4.50
2022-07-30T09:56:00.499Z,4.50
2022-07-30T09:57:23.241Z,4.50
2022-07-30T09:58:01.672Z,4.50
2022-07-30T09:59:00.757Z,4.50
2022-07-30T10:00:10.245Z,4.50
2022-07-30T10:01:00.566Z,4.50
2022-07-30T10:02:03.839Z,4.50
2022-07-30T10:03:00.740Z,4.50
2022-07-30T10:04:00.265Z,4.50
2022-07-30T10:05:10.249Z,4.50
2022-07-30T10:06:00.488Z,4.50
2022-07-30T10:07:00.677Z,4.50
2022-07-30T10:08:02.598Z,4.50
2022-07-30T10:09:00.304Z,4.50
2022-07-30T10:10:00.573Z,4.50
2022-07-30T10:11:00.312Z,4.50
2022-07-30T10:12:03.029Z,4.50
2022-07-30T10:13:04.513Z,4.50
2022-07-30T10:14:00.507Z,4.50
2022-07-30T10:15:01.569Z,4.50
2022-07-30T10:16:00.412Z,4.50
2022-07-30T10:17:00.808Z,4.50
2022-07-30T10:18:01.513Z,4.50
2022-07-30T10:19:00.452Z,4.50
2022-07-30T10:20:02.965Z,4.50
2022-07-30T10:21:01.055Z,4.50
2022-07-30T10:22:00.574Z,4.50
2022-07-30T10:23:00.423Z,4.50
2022-07-30T10:24:01.005Z,4.50
2022-07-30T10:25:01.482Z,4.50
2022-07-30T10:26:00.290Z,4.50
2022-07-30T10:27:01.007Z,4.50
2022-07-30T10:28:01.051Z,4.50
2022-07-30T10:29:00.800Z,4.50
2022-07-30T10:30:03.468Z,2.50
2022-07-30T10:31:00.285Z,2.50
2022-07-30T10:32:01.293Z,2.50
2022-07-30T10:33:01.603Z,2.50
2022-07-30T10:34:00.839Z,2.50
2022-07-30T10:35:00.412Z,2.50
2022-07-30T10:36:02.840Z,2.50
2022-07-30T10:37:04.469Z,2.50
2022-07-30T10:38:00.664Z,2.50
2022-07-30T10:39:00.813Z,2.50
2022-07-30T10:40:09.248Z,2.50
2022-07-30T10:41:04.693Z,2.50
2022-07-30T10:42:10.069Z,2.50
2022-07-30T10:43:10.238Z,2.50
2022-07-30T10:44:07.587Z,2.50
2022-07-30T10:45:10.196Z,2.50
2022-07-30T10:46:07.651Z,2.50
2022-07-30T10:47:07.710Z,2.50
2022-07-30T10:48:01.772Z,2.50
2022-07-30T10:49:12.520Z,2.50
2022-07-30T10:50:10.522Z,2.50
2022-07-30T10:51:01.193Z,2.50
2022-07-30T10:52:00.328Z,2.50
2022-07-30T10:53:00.688Z,2.50
2022-07-30T10:54:00.376Z,2.50
2022-07-30T10:55:00.329Z,2.50
2022-07-30T10:56:10.169Z,2.50
2022-07-30T10:57:10.161Z,2.50
2022-07-30T10:58:00.249Z,2.50
2022-07-30T10:59:03.297Z,2.50
2022-07-30T11:00:00.709Z,4.80
2022-07-30T11:01:00.272Z,4.80
2022-07-30T11:02:00.247Z,4.80
2022-07-30T11:03:14.827Z,4.80
2022-07-30T11:04:10.181Z,4.80
2022-07-30T11:05:10.178Z,4.80
2022-07-30T11:06:10.160Z,4.80
2022-07-30T11:07:12.566Z,4.80
2022-07-30T11:08:10.173Z,4.80
2022-07-30T11:09:00.330Z,4.80
2022-07-30T11:10:05.102Z,4.80
2022-07-30T11:11:16.129Z,4.80
2022-07-30T11:12:06.004Z,4.80
2022-07-30T11:13:00.323Z,4.80
2022-07-30T11:14:00.313Z,4.80
2022-07-30T11:15:06.843Z,4.80
2022-07-30T11:16:00.408Z,4.80
2022-07-30T11:17:00.270Z,4.80
2022-07-30T11:18:04.320Z,4.80
2022-07-30T11:19:55.707Z,4.80
2022-07-30T11:20:01.887Z,4.80
2022-07-30T11:21:10.173Z,4.80
2022-07-30T11:22:11.233Z,4.80
2022-07-30T11:23:08.392Z,4.80
2022-07-30T11:24:01.093Z,4.80
2022-07-30T11:25:00.490Z,4.80
2022-07-30T11:26:00.290Z,4.80
2022-07-30T11:27:00.477Z,4.80
2022-07-30T11:28:00.271Z,4.80
2022-07-30T11:29:00.600Z,4.80
2022-07-30T11:30:00.419Z,6.30
2022-07-30T11:31:00.265Z,6.30
2022-07-30T11:32:10.601Z,6.30
2022-07-30T11:33:03.597Z,6.30
2022-07-30T11:34:10.180Z,6.30
2022-07-30T11:35:10.176Z,6.30
2022-07-30T11:36:04.189Z,6.30
2022-07-30T11:37:18.864Z,6.30
2022-07-30T11:38:02.255Z,6.30
2022-07-30T11:39:06.872Z,6.30
2022-07-30T11:40:05.659Z,6.30
2022-07-30T11:41:00.250Z,6.30
2022-07-30T11:42:10.175Z,6.30
2022-07-30T11:43:10.166Z,6.30
2022-07-30T11:44:10.192Z,6.30
2022-07-30T11:45:10.186Z,6.30
2022-07-30T11:46:05.195Z,6.30
2022-07-30T11:47:01.524Z,6.30
2022-07-30T11:48:00.389Z,6.30
2022-07-30T11:49:01.673Z,6.30
2022-07-30T11:50:00.340Z,6.30
2022-07-30T11:51:03.784Z,6.30
2022-07-30T11:52:00.840Z,6.30
2022-07-30T11:53:04.287Z,6.30
2022-07-30T11:54:01.534Z,6.30
2022-07-30T11:55:00.291Z,6.30
2022-07-30T11:56:00.852Z,6.30
2022-07-30T11:57:04.346Z,6.30
2022-07-30T11:58:01.835Z,6.30
2022-07-30T11:59:02.505Z,6.30
2022-07-30T12:00:00.322Z,3.30
2022-07-30T12:01:01.754Z,3.30
2022-07-30T12:02:00.682Z,3.30
2022-07-30T12:03:05.677Z,3.30
2022-07-30T12:04:02.266Z,3.30
2022-07-30T12:05:00.346Z,3.30
2022-07-30T12:06:05.026Z,3.30
2022-07-30T12:07:00.696Z,3.30
2022-07-30T12:08:00.305Z,3.30
2022-07-30T12:09:00.552Z,3.30
2022-07-30T12:10:10.235Z,3.30
2022-07-30T12:11:00.502Z,3.30
2022-07-30T12:12:01.118Z,3.30
2022-07-30T12:13:05.480Z,3.30
2022-07-30T12:14:00.447Z,3.30
2022-07-30T12:15:01.854Z,3.30
2022-07-30T12:16:00.272Z,3.30
2022-07-30T12:17:00.581Z,3.30
2022-07-30T12:18:24.284Z,3.30
2022-07-30T12:19:02.424Z,3.30
2022-07-30T12:20:00.290Z,3.30
2022-07-30T12:21:01.719Z,3.30
2022-07-30T12:22:00.397Z,3.30
2022-07-30T12:23:00.305Z,3.30
2022-07-30T12:24:02.051Z,3.30
2022-07-30T12:25:05.233Z,3.30
2022-07-30T12:26:00.617Z,3.30
2022-07-30T12:27:07.510Z,3.30
2022-07-30T12:28:00.624Z,3.30
2022-07-30T12:29:01.838Z,3.30
2022-07-30T12:30:00.601Z,4.00
2022-07-30T12:31:00.658Z,4.00
2022-07-30T12:32:00.429Z,4.00
2022-07-30T12:33:00.354Z,4.00
2022-07-30T12:34:00.517Z,4.00
2022-07-30T12:35:00.482Z,4.00
2022-07-30T12:36:00.271Z,4.00
2022-07-30T12:37:08.393Z,4.00
2022-07-30T12:38:00.845Z,4.00
2022-07-30T12:39:02.074Z,4.00
2022-07-30T12:40:11.699Z,4.00
2022-07-30T12:41:01.438Z,4.00
2022-07-30T12:42:00.297Z,4.00
2022-07-30T12:43:00.296Z,4.00
2022-07-30T12:44:00.269Z,4.00
2022-07-30T12:45:00.398Z,4.00
2022-07-30T12:46:00.292Z,4.00
2022-07-30T12:47:01.026Z,4.00
2022-07-30T12:48:00.325Z,4.00
2022-07-30T12:49:12.183Z,4.00
2022-07-30T12:50:01.971Z,4.00
2022-07-30T12:51:04.319Z,4.00
2022-07-30T12:52:00.681Z,4.00
2022-07-30T12:53:00.322Z,4.00
2022-07-30T12:54:10.185Z,4.00
2022-07-30T12:55:10.198Z,4.00
2022-07-30T12:56:10.202Z,4.00
2022-07-30T12:57:02.710Z,4.00
2022-07-30T12:58:07.218Z,4.00
2022-07-30T12:59:00.347Z,4.00
2022-07-30T13:00:04.006Z,7.00
2022-07-30T13:01:00.342Z,7.00
2022-07-30T13:02:00.590Z,7.00
2022-07-30T13:03:00.525Z,7.00
2022-07-30T13:04:07.877Z,7.00
2022-07-30T13:05:10.736Z,7.00
2022-07-30T13:06:00.281Z,7.00
2022-07-30T13:07:02.465Z,7.00
2022-07-30T13:08:00.274Z,7.00
2022-07-30T13:09:00.518Z,7.00
2022-07-30T13:10:08.904Z,7.00
2022-07-30T13:11:00.402Z,7.00
2022-07-30T13:12:00.860Z,7.00
2022-07-30T13:13:00.276Z,7.00
2022-07-30T13:14:00.287Z,7.00
2022-07-30T13:15:00.418Z,7.00
2022-07-30T13:16:02.096Z,7.00
2022-07-30T13:17:00.757Z,7.00
2022-07-30T13:18:00.286Z,7.00